Airfield :
LOGIN :

Register | Disclaimer

   EN    FR    IT 

 










Legend :    VFR   Marginal VFR   IFR   Intensive IFR   Very Intensive IFR
Visi :
Ceiling :
>= 8 km
>= 3000ft
5 to 8 km
1000 to 3000 ft
1500m to 5 km
500 to 1000 ft
800 to 1500m
200 to 500 ft
< 800m
< 200 ft
Symbols :   Thunderstorms  Fog  Heavy snow  Heavy precipitations  Wind > 20 kt
SIGMETs :     Misc.  Thunderstorms  Icing  Turbulence  Mountain Waves  Volcanic Ashes







- Airport Elevation : 526 ft
- IATA code : LTN
- Download approach charts


EGGW - London Luton

CURRENT METAR :
  • 161150Z 21011KT 3900 -RADZ BKN004 OVC009 08/08 Q1002

EXPIRED METARs :
  • 161120Z AUTO 21011KT 4200 -DZ OVC004 08/08 Q1003 REDZ
  • 161050Z AUTO 21010KT 5000 -RA OVC004 08/08 Q1003 REDZ
  • 161020Z AUTO 21011KT 4300 -DZ BKN005 OVC010 08/08 Q1004
  • 160950Z 21011KT 6000 -RA OVC004 08/07 Q1004 REDZ
  • 160920Z AUTO 21012KT 3000 DZ OVC004 08/07 Q1005
  • 160850Z AUTO 21011KT 9999 OVC004 08/07 Q1005

TAF AMD TAF EGGW
Valid from the 16 at 12:00 until the 17 at 12:00 UTC


161149Z 1612/1712 22012KT 4000 RADZ BKN004
BECMG 1612/1614 9999 NSW SCT020
BECMG 1614/1617 28010KT
TEMPO 1614/1617 6000 RA BKN010
PROB30
TEMPO 1614/1617 23015G25KT 3000 +RA BKN006
BECMG 1618/1621 22008KT
TEMPO 1622/1710 7000 SHRA BKN008
BECMG 1700/1703 30010KT
PROB30
TEMPO 1707/1710 32015G25KT 3000 SHRASN -SHSN BKN004
ATIS : +44 1582 395 204
No reported NOTAMs for that airfield.



MET'MAP, your aeronautical weather chart ! - Copyright ORBIFLY December 2007 - Disclaimer

ORBIFLY MET'MAP TEAM :

Programming & Development : Alexandra Zaïnal
Concept & Development : Baudouin d'Aumeries
Co-Development & Prog : Marc-Olivier Méhu
Technical & hardware support : Manuel Goepfert

Contact : metmap@orbifly.com




SOURCES & CREDITS :

   NOAA